sensor_id;sensor_type;location;lat;lon;timestamp;temperature;humidity
33093;DHT22;19456;46.104;12.908;2024-03-25T00:01:55;5.60;99.90
33093;DHT22;19456;46.104;12.908;2024-03-25T00:04:21;5.50;99.90
33093;DHT22;19456;46.104;12.908;2024-03-25T00:06:51;5.40;99.90
33093;DHT22;19456;46.104;12.908;2024-03-25T00:09:16;5.30;99.90
33093;DHT22;19456;46.104;12.908;2024-03-25T00:11:42;5.40;99.90
33093;DHT22;19456;46.104;12.908;2024-03-25T00:14:08;5.40;99.90
33093;DHT22;19456;46.104;12.908;2024-03-25T00:16:34;5.40;99.90
33093;DHT22;19456;46.104;12.908;2024-03-25T00:18:59;5.50;99.90
33093;DHT22;19456;46.104;12.908;2024-03-25T00:21:25;5.40;99.90
33093;DHT22;19456;46.104;12.908;2024-03-25T00:23:50;5.50;99.90
33093;DHT22;19456;46.104;12.908;2024-03-25T00:26:16;5.50;99.90
33093;DHT22;19456;46.104;12.908;2024-03-25T00:28:42;5.50;99.90
33093;DHT22;19456;46.104;12.908;2024-03-25T00:31:09;5.40;99.90
33093;DHT22;19456;46.104;12.908;2024-03-25T00:33:34;5.50;99.90
33093;DHT22;19456;46.104;12.908;2024-03-25T00:36:00;5.60;99.90
33093;DHT22;19456;46.104;12.908;2024-03-25T00:38:25;5.40;99.90
33093;DHT22;19456;46.104;12.908;2024-03-25T00:40:51;4.80;99.90
33093;DHT22;19456;46.104;12.908;2024-03-25T00:43:16;4.50;99.90
33093;DHT22;19456;46.104;12.908;2024-03-25T00:45:43;4.40;99.90
33093;DHT22;19456;46.104;12.908;2024-03-25T00:48:08;4.50;99.90
33093;DHT22;19456;46.104;12.908;2024-03-25T00:50:34;4.60;99.90
33093;DHT22;19456;46.104;12.908;2024-03-25T00:52:59;4.80;99.90
33093;DHT22;19456;46.104;12.908;2024-03-25T00:55:25;5.00;99.90
33093;DHT22;19456;46.104;12.908;2024-03-25T00:57:50;5.00;99.90
33093;DHT22;19456;46.104;12.908;2024-03-25T01:00:16;5.10;99.90
33093;DHT22;19456;46.104;12.908;2024-03-25T01:02:42;5.10;99.90
33093;DHT22;19456;46.104;12.908;2024-03-25T01:05:08;5.10;99.90
33093;DHT22;19456;46.104;12.908;2024-03-25T01:07:34;5.10;99.90
33093;DHT22;19456;46.104;12.908;2024-03-25T01:10:00;5.20;99.90
33093;DHT22;19456;46.104;12.908;2024-03-25T01:12:25;5.30;99.90
33093;DHT22;19456;46.104;12.908;2024-03-25T01:14:51;5.40;99.90
33093;DHT22;19456;46.104;12.908;2024-03-25T01:17:17;5.50;99.90
33093;DHT22;19456;46.104;12.908;2024-03-25T01:19:42;5.60;99.90
33093;DHT22;19456;46.104;12.908;2024-03-25T01:22:08;5.60;99.90
33093;DHT22;19456;46.104;12.908;2024-03-25T01:24:34;5.60;99.90
33093;DHT22;19456;46.104;12.908;2024-03-25T01:27:00;5.60;99.90
33093;DHT22;19456;46.104;12.908;2024-03-25T01:29:25;5.50;99.90
33093;DHT22;19456;46.104;12.908;2024-03-25T01:31:51;5.30;99.90
33093;DHT22;19456;46.104;12.908;2024-03-25T01:34:16;5.20;99.90
33093;DHT22;19456;46.104;12.908;2024-03-25T01:36:42;5.20;99.90
33093;DHT22;19456;46.104;12.908;2024-03-25T01:39:07;5.20;99.90
33093;DHT22;19456;46.104;12.908;2024-03-25T01:41:33;5.30;99.90
33093;DHT22;19456;46.104;12.908;2024-03-25T01:43:59;5.30;99.90
33093;DHT22;19456;46.104;12.908;2024-03-25T01:46:24;5.20;99.90
33093;DHT22;19456;46.104;12.908;2024-03-25T01:48:50;5.20;99.90
33093;DHT22;19456;46.104;12.908;2024-03-25T01:51:18;5.20;99.90
33093;DHT22;19456;46.104;12.908;2024-03-25T01:53:44;5.00;99.90
33093;DHT22;19456;46.104;12.908;2024-03-25T01:56:10;5.10;99.90
33093;DHT22;19456;46.104;12.908;2024-03-25T01:58:36;5.10;99.90
33093;DHT22;19456;46.104;12.908;2024-03-25T02:01:03;5.10;99.90
33093;DHT22;19456;46.104;12.908;2024-03-25T02:03:29;5.10;99.90
33093;DHT22;19456;46.104;12.908;2024-03-25T02:05:55;5.20;99.90
33093;DHT22;19456;46.104;12.908;2024-03-25T02:08:22;5.20;99.90
33093;DHT22;19456;46.104;12.908;2024-03-25T02:10:48;5.00;99.90
33093;DHT22;19456;46.104;12.908;2024-03-25T02:13:14;4.80;99.90
33093;DHT22;19456;46.104;12.908;2024-03-25T02:15:40;4.80;99.90
33093;DHT22;19456;46.104;12.908;2024-03-25T02:18:06;4.70;99.90
33093;DHT22;19456;46.104;12.908;2024-03-25T02:20:32;4.60;99.90
33093;DHT22;19456;46.104;12.908;2024-03-25T02:22:57;4.60;99.90
33093;DHT22;19456;46.104;12.908;2024-03-25T02:25:23;4.60;99.90
33093;DHT22;19456;46.104;12.908;2024-03-25T02:27:49;4.60;99.90
33093;DHT22;19456;46.104;12.908;2024-03-25T02:30:14;4.50;99.90
33093;DHT22;19456;46.104;12.908;2024-03-25T02:32:40;4.30;99.90
33093;DHT22;19456;46.104;12.908;2024-03-25T02:35:15;4.30;99.90
33093;DHT22;19456;46.104;12.908;2024-03-25T02:37:42;4.20;99.90
33093;DHT22;19456;46.104;12.908;2024-03-25T02:40:08;4.20;99.90
33093;DHT22;19456;46.104;12.908;2024-03-25T02:42:37;4.40;99.90
33093;DHT22;19456;46.104;12.908;2024-03-25T02:45:05;4.50;99.90
33093;DHT22;19456;46.104;12.908;2024-03-25T02:47:30;4.60;99.90
33093;DHT22;19456;46.104;12.908;2024-03-25T02:49:56;4.20;99.90
33093;DHT22;19456;46.104;12.908;2024-03-25T02:52:22;4.20;99.90
33093;DHT22;19456;46.104;12.908;2024-03-25T02:54:47;4.00;99.90
33093;DHT22;19456;46.104;12.908;2024-03-25T02:57:13;4.00;99.90
33093;DHT22;19456;46.104;12.908;2024-03-25T02:59:38;4.10;99.90
33093;DHT22;19456;46.104;12.908;2024-03-25T03:02:04;4.20;99.90
33093;DHT22;19456;46.104;12.908;2024-03-25T03:04:29;4.20;99.90
33093;DHT22;19456;46.104;12.908;2024-03-25T03:06:55;4.10;99.90
33093;DHT22;19456;46.104;12.908;2024-03-25T03:09:21;4.10;99.90
33093;DHT22;19456;46.104;12.908;2024-03-25T03:11:47;4.10;99.90
33093;DHT22;19456;46.104;12.908;2024-03-25T03:14:12;4.30;99.90
33093;DHT22;19456;46.104;12.908;2024-03-25T03:16:38;4.50;99.90
33093;DHT22;19456;46.104;12.908;2024-03-25T03:19:03;4.60;99.90
33093;DHT22;19456;46.104;12.908;2024-03-25T03:21:29;4.70;99.90
33093;DHT22;19456;46.104;12.908;2024-03-25T03:23:55;4.50;99.90
33093;DHT22;19456;46.104;12.908;2024-03-25T03:26:21;4.20;99.90
33093;DHT22;19456;46.104;12.908;2024-03-25T03:28:46;4.00;99.90
33093;DHT22;19456;46.104;12.908;2024-03-25T03:31:12;4.00;99.90
33093;DHT22;19456;46.104;12.908;2024-03-25T03:33:37;4.10;99.90
33093;DHT22;19456;46.104;12.908;2024-03-25T03:36:03;4.20;99.90
33093;DHT22;19456;46.104;12.908;2024-03-25T03:38:28;4.20;99.90
33093;DHT22;19456;46.104;12.908;2024-03-25T03:40:58;4.20;99.90
33093;DHT22;19456;46.104;12.908;2024-03-25T03:43:23;4.30;99.90
33093;DHT22;19456;46.104;12.908;2024-03-25T03:45:49;4.30;99.90
33093;DHT22;19456;46.104;12.908;2024-03-25T03:48:14;4.20;99.90
33093;DHT22;19456;46.104;12.908;2024-03-25T03:50:40;4.30;99.90
33093;DHT22;19456;46.104;12.908;2024-03-25T03:53:06;4.20;99.90
33093;DHT22;19456;46.104;12.908;2024-03-25T03:55:32;4.30;99.90
33093;DHT22;19456;46.104;12.908;2024-03-25T03:57:57;4.20;99.90
33093;DHT22;19456;46.104;12.908;2024-03-25T04:00:23;4.20;99.90
33093;DHT22;19456;46.104;12.908;2024-03-25T04:02:49;4.20;99.90
33093;DHT22;19456;46.104;12.908;2024-03-25T04:05:14;4.20;99.90
33093;DHT22;19456;46.104;12.908;2024-03-25T04:07:40;4.20;99.90
33093;DHT22;19456;46.104;12.908;2024-03-25T04:10:05;4.10;99.90
33093;DHT22;19456;46.104;12.908;2024-03-25T04:12:31;4.10;99.90
33093;DHT22;19456;46.104;12.908;2024-03-25T04:14:57;4.00;99.90
33093;DHT22;19456;46.104;12.908;2024-03-25T04:17:23;4.10;99.90
33093;DHT22;19456;46.104;12.908;2024-03-25T04:19:49;4.10;99.90
33093;DHT22;19456;46.104;12.908;2024-03-25T04:22:14;4.10;99.90
33093;DHT22;19456;46.104;12.908;2024-03-25T04:24:40;4.10;99.90
33093;DHT22;19456;46.104;12.908;2024-03-25T04:27:05;4.20;99.90
33093;DHT22;19456;46.104;12.908;2024-03-25T04:29:31;4.10;99.90
33093;DHT22;19456;46.104;12.908;2024-03-25T04:31:56;4.10;99.90
33093;DHT22;19456;46.104;12.908;2024-03-25T04:34:22;4.00;99.90
33093;DHT22;19456;46.104;12.908;2024-03-25T04:36:48;3.90;99.90
33093;DHT22;19456;46.104;12.908;2024-03-25T04:39:14;3.80;99.90
33093;DHT22;19456;46.104;12.908;2024-03-25T04:41:39;3.80;99.90
33093;DHT22;19456;46.104;12.908;2024-03-25T04:44:06;3.80;99.90
33093;DHT22;19456;46.104;12.908;2024-03-25T04:46:31;3.90;99.90
33093;DHT22;19456;46.104;12.908;2024-03-25T04:48:57;3.90;99.90
33093;DHT22;19456;46.104;12.908;2024-03-25T04:51:22;3.90;99.90
33093;DHT22;19456;46.104;12.908;2024-03-25T04:53:48;3.90;99.90
33093;DHT22;19456;46.104;12.908;2024-03-25T04:56:13;3.90;99.90
33093;DHT22;19456;46.104;12.908;2024-03-25T04:58:39;3.90;99.90
33093;DHT22;19456;46.104;12.908;2024-03-25T05:01:04;3.90;99.90
33093;DHT22;19456;46.104;12.908;2024-03-25T05:03:30;3.90;99.90
33093;DHT22;19456;46.104;12.908;2024-03-25T05:05:55;3.90;99.90
33093;DHT22;19456;46.104;12.908;2024-03-25T05:08:22;3.90;99.90
33093;DHT22;19456;46.104;12.908;2024-03-25T05:10:47;3.90;99.90
33093;DHT22;19456;46.104;12.908;2024-03-25T05:13:13;4.00;99.90
33093;DHT22;19456;46.104;12.908;2024-03-25T05:15:38;4.00;99.90
33093;DHT22;19456;46.104;12.908;2024-03-25T05:18:04;4.00;99.90
33093;DHT22;19456;46.104;12.908;2024-03-25T05:20:29;4.00;99.90
33093;DHT22;19456;46.104;12.908;2024-03-25T05:22:55;4.00;99.90
33093;DHT22;19456;46.104;12.908;2024-03-25T05:25:20;3.90;99.90
33093;DHT22;19456;46.104;12.908;2024-03-25T05:27:49;3.90;99.90
33093;DHT22;19456;46.104;12.908;2024-03-25T05:30:15;3.90;99.90
33093;DHT22;19456;46.104;12.908;2024-03-25T05:32:40;3.80;99.90
33093;DHT22;19456;46.104;12.908;2024-03-25T05:35:06;3.90;99.90
33093;DHT22;19456;46.104;12.908;2024-03-25T05:37:32;4.10;99.90
33093;DHT22;19456;46.104;12.908;2024-03-25T05:39:59;4.20;99.90
33093;DHT22;19456;46.104;12.908;2024-03-25T05:42:24;4.30;99.90
33093;DHT22;19456;46.104;12.908;2024-03-25T05:44:50;4.50;99.90
33093;DHT22;19456;46.104;12.908;2024-03-25T05:47:15;4.70;99.90
33093;DHT22;19456;46.104;12.908;2024-03-25T05:49:41;4.70;99.90
33093;DHT22;19456;46.104;12.908;2024-03-25T05:52:06;4.70;99.90
33093;DHT22;19456;46.104;12.908;2024-03-25T05:54:32;4.60;99.90
33093;DHT22;19456;46.104;12.908;2024-03-25T05:56:57;4.60;99.90
33093;DHT22;19456;46.104;12.908;2024-03-25T05:59:23;4.40;99.90
33093;DHT22;19456;46.104;12.908;2024-03-25T06:01:48;4.40;99.90
33093;DHT22;19456;46.104;12.908;2024-03-25T06:04:14;4.40;99.90
33093;DHT22;19456;46.104;12.908;2024-03-25T06:06:39;4.50;99.90
33093;DHT22;19456;46.104;12.908;2024-03-25T06:09:05;4.50;99.90
33093;DHT22;19456;46.104;12.908;2024-03-25T06:11:30;4.60;99.90
33093;DHT22;19456;46.104;12.908;2024-03-25T06:13:56;4.80;99.90
33093;DHT22;19456;46.104;12.908;2024-03-25T06:16:22;4.80;99.90
33093;DHT22;19456;46.104;12.908;2024-03-25T06:18:47;4.90;99.90
33093;DHT22;19456;46.104;12.908;2024-03-25T06:21:13;5.10;99.90
33093;DHT22;19456;46.104;12.908;2024-03-25T06:23:38;5.20;99.90
33093;DHT22;19456;46.104;12.908;2024-03-25T06:26:04;5.30;99.90
33093;DHT22;19456;46.104;12.908;2024-03-25T06:28:29;5.30;99.90
33093;DHT22;19456;46.104;12.908;2024-03-25T06:30:55;5.40;99.90
33093;DHT22;19456;46.104;12.908;2024-03-25T06:33:39;5.50;99.90
33093;DHT22;19456;46.104;12.908;2024-03-25T06:36:23;5.80;99.90
33093;DHT22;19456;46.104;12.908;2024-03-25T06:38:49;6.00;99.90
33093;DHT22;19456;46.104;12.908;2024-03-25T06:41:18;6.10;99.90
33093;DHT22;19456;46.104;12.908;2024-03-25T06:43:44;6.20;99.90
33093;DHT22;19456;46.104;12.908;2024-03-25T06:46:09;6.40;99.90
33093;DHT22;19456;46.104;12.908;2024-03-25T06:48:38;6.60;99.90
33093;DHT22;19456;46.104;12.908;2024-03-25T06:51:05;6.70;99.90
33093;DHT22;19456;46.104;12.908;2024-03-25T06:53:36;6.80;99.90
33093;DHT22;19456;46.104;12.908;2024-03-25T06:56:21;7.00;99.90
33093;DHT22;19456;46.104;12.908;2024-03-25T06:58:53;7.20;99.90
33093;DHT22;19456;46.104;12.908;2024-03-25T07:01:19;7.10;99.90
33093;DHT22;19456;46.104;12.908;2024-03-25T07:03:58;7.20;99.90
33093;DHT22;19456;46.104;12.908;2024-03-25T07:06:33;7.40;99.90
33093;DHT22;19456;46.104;12.908;2024-03-25T07:09:22;7.60;99.90
33093;DHT22;19456;46.104;12.908;2024-03-25T07:11:55;7.70;99.90
33093;DHT22;19456;46.104;12.908;2024-03-25T07:14:28;7.90;99.90
33093;DHT22;19456;46.104;12.908;2024-03-25T07:16:54;8.00;99.90
33093;DHT22;19456;46.104;12.908;2024-03-25T07:19:28;8.00;99.90
33093;DHT22;19456;46.104;12.908;2024-03-25T07:22:12;8.10;99.90
33093;DHT22;19456;46.104;12.908;2024-03-25T07:25:05;8.20;99.90
33093;DHT22;19456;46.104;12.908;2024-03-25T07:27:33;8.30;99.90
33093;DHT22;19456;46.104;12.908;2024-03-25T07:29:58;8.30;99.90
33093;DHT22;19456;46.104;12.908;2024-03-25T07:32:24;8.40;99.90
33093;DHT22;19456;46.104;12.908;2024-03-25T07:34:51;8.50;99.90
33093;DHT22;19456;46.104;12.908;2024-03-25T07:37:16;8.30;99.90
33093;DHT22;19456;46.104;12.908;2024-03-25T07:39:42;8.30;99.90
33093;DHT22;19456;46.104;12.908;2024-03-25T07:42:08;8.20;99.90
33093;DHT22;19456;46.104;12.908;2024-03-25T07:44:33;8.30;99.90
33093;DHT22;19456;46.104;12.908;2024-03-25T07:47:00;8.30;99.90
33093;DHT22;19456;46.104;12.908;2024-03-25T07:49:26;8.40;99.90
33093;DHT22;19456;46.104;12.908;2024-03-25T07:51:52;8.50;99.90
33093;DHT22;19456;46.104;12.908;2024-03-25T07:54:17;8.50;99.90
33093;DHT22;19456;46.104;12.908;2024-03-25T07:56:46;8.70;99.90
33093;DHT22;19456;46.104;12.908;2024-03-25T07:59:26;8.70;99.90
33093;DHT22;19456;46.104;12.908;2024-03-25T08:01:55;8.80;99.90
33093;DHT22;19456;46.104;12.908;2024-03-25T08:04:23;9.00;99.90
33093;DHT22;19456;46.104;12.908;2024-03-25T08:06:48;9.20;99.90
33093;DHT22;19456;46.104;12.908;2024-03-25T08:12:19;9.60;99.90
33093;DHT22;19456;46.104;12.908;2024-03-25T08:14:50;9.80;99.90
33093;DHT22;19456;46.104;12.908;2024-03-25T08:17:49;9.90;99.90
33093;DHT22;19456;46.104;12.908;2024-03-25T08:20:56;10.00;99.90
33093;DHT22;19456;46.104;12.908;2024-03-25T08:26:56;10.10;99.90
33093;DHT22;19456;46.104;12.908;2024-03-25T08:29:45;10.30;99.90
33093;DHT22;19456;46.104;12.908;2024-03-25T08:51:13;11.30;99.90
33093;DHT22;19456;46.104;12.908;2024-03-25T08:59:37;11.60;99.90
33093;DHT22;19456;46.104;12.908;2024-03-25T09:02:05;11.70;99.90
33093;DHT22;19456;46.104;12.908;2024-03-25T09:04:33;11.80;99.90
33093;DHT22;19456;46.104;12.908;2024-03-25T09:07:02;11.80;99.90
33093;DHT22;19456;46.104;12.908;2024-03-25T09:09:31;11.80;99.90
33093;DHT22;19456;46.104;12.908;2024-03-25T09:57:38;12.90;99.90
33093;DHT22;19456;46.104;12.908;2024-03-25T10:00:49;13.10;99.90
33093;DHT22;19456;46.104;12.908;2024-03-25T10:03:42;13.10;99.90
33093;DHT22;19456;46.104;12.908;2024-03-25T10:09:18;13.10;99.40
33093;DHT22;19456;46.104;12.908;2024-03-25T10:11:49;13.10;99.90
33093;DHT22;19456;46.104;12.908;2024-03-25T10:14:15;13.20;99.90
33093;DHT22;19456;46.104;12.908;2024-03-25T10:16:42;13.40;99.90
33093;DHT22;19456;46.104;12.908;2024-03-25T10:19:08;13.40;99.20
33093;DHT22;19456;46.104;12.908;2024-03-25T10:21:44;13.40;99.10
33093;DHT22;19456;46.104;12.908;2024-03-25T10:24:17;13.40;99.10
33093;DHT22;19456;46.104;12.908;2024-03-25T10:27:03;13.70;99.60
33093;DHT22;19456;46.104;12.908;2024-03-25T10:36:38;14.10;96.70
33093;DHT22;19456;46.104;12.908;2024-03-25T10:42:31;14.20;92.10
33093;DHT22;19456;46.104;12.908;2024-03-25T10:45:02;14.30;91.30
33093;DHT22;19456;46.104;12.908;2024-03-25T10:47:50;14.40;90.50
33093;DHT22;19456;46.104;12.908;2024-03-25T10:53:49;14.80;90.30
33093;DHT22;19456;46.104;12.908;2024-03-25T10:59:41;14.70;91.60
33093;DHT22;19456;46.104;12.908;2024-03-25T11:02:08;14.90;91.60
33093;DHT22;19456;46.104;12.908;2024-03-25T11:04:36;14.80;91.60
33093;DHT22;19456;46.104;12.908;2024-03-25T11:07:14;14.70;91.00
33093;DHT22;19456;46.104;12.908;2024-03-25T11:09:40;14.80;90.30
33093;DHT22;19456;46.104;12.908;2024-03-25T11:12:09;15.10;90.70
33093;DHT22;19456;46.104;12.908;2024-03-25T11:14:40;15.50;90.20
33093;DHT22;19456;46.104;12.908;2024-03-25T11:17:16;15.70;90.00
33093;DHT22;19456;46.104;12.908;2024-03-25T11:19:42;16.10;90.20
33093;DHT22;19456;46.104;12.908;2024-03-25T11:22:08;16.00;86.40
33093;DHT22;19456;46.104;12.908;2024-03-25T11:24:35;16.10;85.90
33093;DHT22;19456;46.104;12.908;2024-03-25T11:27:06;16.50;86.00
33093;DHT22;19456;46.104;12.908;2024-03-25T11:29:32;17.00;77.10
33093;DHT22;19456;46.104;12.908;2024-03-25T11:31:58;17.40;75.80
33093;DHT22;19456;46.104;12.908;2024-03-25T11:34:25;17.80;70.70
33093;DHT22;19456;46.104;12.908;2024-03-25T11:36:53;18.00;73.70
33093;DHT22;19456;46.104;12.908;2024-03-25T11:42:12;17.90;77.90
33093;DHT22;19456;46.104;12.908;2024-03-25T11:45:07;18.40;76.20
33093;DHT22;19456;46.104;12.908;2024-03-25T11:47:53;18.90;70.20
33093;DHT22;19456;46.104;12.908;2024-03-25T11:50:23;18.90;67.20
33093;DHT22;19456;46.104;12.908;2024-03-25T11:53:10;19.20;66.40
33093;DHT22;19456;46.104;12.908;2024-03-25T11:55:39;19.40;65.90
33093;DHT22;19456;46.104;12.908;2024-03-25T11:58:06;18.40;67.10
33093;DHT22;19456;46.104;12.908;2024-03-25T12:00:32;18.10;67.30
33093;DHT22;19456;46.104;12.908;2024-03-25T12:02:59;18.40;66.40
33093;DHT22;19456;46.104;12.908;2024-03-25T12:05:25;18.70;65.60
33093;DHT22;19456;46.104;12.908;2024-03-25T12:07:51;18.70;63.10
33093;DHT22;19456;46.104;12.908;2024-03-25T12:13:13;19.60;56.70
33093;DHT22;19456;46.104;12.908;2024-03-25T12:18:41;19.90;54.50
33093;DHT22;19456;46.104;12.908;2024-03-25T12:21:07;20.20;53.80
33093;DHT22;19456;46.104;12.908;2024-03-25T12:23:33;20.10;52.80
33093;DHT22;19456;46.104;12.908;2024-03-25T12:25:59;20.00;53.80
33093;DHT22;19456;46.104;12.908;2024-03-25T12:28:40;20.40;54.90
33093;DHT22;19456;46.104;12.908;2024-03-25T12:31:19;21.00;49.80
33093;DHT22;19456;46.104;12.908;2024-03-25T12:33:58;21.40;47.10
33093;DHT22;19456;46.104;12.908;2024-03-25T12:36:24;21.60;48.60
33093;DHT22;19456;46.104;12.908;2024-03-25T12:39:05;21.40;48.70
33093;DHT22;19456;46.104;12.908;2024-03-25T12:45:13;21.40;52.00
33093;DHT22;19456;46.104;12.908;2024-03-25T13:04:00;21.30;50.40
33093;DHT22;19456;46.104;12.908;2024-03-25T13:10:23;21.20;52.20
33093;DHT22;19456;46.104;12.908;2024-03-25T13:13:17;21.80;51.60
33093;DHT22;19456;46.104;12.908;2024-03-25T13:31:41;22.90;46.80
33093;DHT22;19456;46.104;12.908;2024-03-25T14:29:32;25.80;43.00
33093;DHT22;19456;46.104;12.908;2024-03-25T14:31:58;26.10;42.30
33093;DHT22;19456;46.104;12.908;2024-03-25T14:34:24;25.70;41.70
33093;DHT22;19456;46.104;12.908;2024-03-25T14:36:49;25.80;41.00
33093;DHT22;19456;46.104;12.908;2024-03-25T14:39:16;26.00;41.00
33093;DHT22;19456;46.104;12.908;2024-03-25T14:41:42;25.70;41.10
33093;DHT22;19456;46.104;12.908;2024-03-25T14:44:07;25.90;40.60
33093;DHT22;19456;46.104;12.908;2024-03-25T14:46:33;25.50;39.70
33093;DHT22;19456;46.104;12.908;2024-03-25T14:48:58;25.80;40.20
33093;DHT22;19456;46.104;12.908;2024-03-25T14:51:24;25.90;39.70
33093;DHT22;19456;46.104;12.908;2024-03-25T14:53:50;25.90;40.40
33093;DHT22;19456;46.104;12.908;2024-03-25T14:56:16;24.50;40.90
33093;DHT22;19456;46.104;12.908;2024-03-25T14:58:43;23.40;43.70
33093;DHT22;19456;46.104;12.908;2024-03-25T15:01:10;22.90;41.90
33093;DHT22;19456;46.104;12.908;2024-03-25T15:03:35;23.50;42.40
33093;DHT22;19456;46.104;12.908;2024-03-25T15:06:01;23.90;41.60
33093;DHT22;19456;46.104;12.908;2024-03-25T15:08:31;23.70;41.40
33093;DHT22;19456;46.104;12.908;2024-03-25T15:10:56;23.10;41.30
33093;DHT22;19456;46.104;12.908;2024-03-25T15:13:22;24.20;42.50
33093;DHT22;19456;46.104;12.908;2024-03-25T15:15:50;24.70;41.10
33093;DHT22;19456;46.104;12.908;2024-03-25T15:18:19;25.30;40.50
33093;DHT22;19456;46.104;12.908;2024-03-25T15:20:45;25.40;40.20
33093;DHT22;19456;46.104;12.908;2024-03-25T15:23:22;24.60;39.60
33093;DHT22;19456;46.104;12.908;2024-03-25T15:25:52;24.80;40.20
33093;DHT22;19456;46.104;12.908;2024-03-25T15:28:26;24.50;41.00
33093;DHT22;19456;46.104;12.908;2024-03-25T15:30:57;23.50;41.00
33093;DHT22;19456;46.104;12.908;2024-03-25T15:33:23;22.60;43.10
33093;DHT22;19456;46.104;12.908;2024-03-25T15:35:49;22.30;43.50
33093;DHT22;19456;46.104;12.908;2024-03-25T15:38:15;22.40;44.00
33093;DHT22;19456;46.104;12.908;2024-03-25T15:40:41;22.20;44.50
33093;DHT22;19456;46.104;12.908;2024-03-25T15:43:20;21.60;45.50
33093;DHT22;19456;46.104;12.908;2024-03-25T15:45:58;21.20;46.50
33093;DHT22;19456;46.104;12.908;2024-03-25T15:48:24;21.50;47.10
33093;DHT22;19456;46.104;12.908;2024-03-25T15:50:50;21.00;46.90
33093;DHT22;19456;46.104;12.908;2024-03-25T15:53:15;20.70;48.50
33093;DHT22;19456;46.104;12.908;2024-03-25T15:55:41;19.90;48.10
33093;DHT22;19456;46.104;12.908;2024-03-25T15:58:07;19.10;50.00
33093;DHT22;19456;46.104;12.908;2024-03-25T16:00:33;18.30;51.30
33093;DHT22;19456;46.104;12.908;2024-03-25T16:02:58;17.90;51.70
33093;DHT22;19456;46.104;12.908;2024-03-25T16:05:26;17.60;52.90
33093;DHT22;19456;46.104;12.908;2024-03-25T16:07:51;17.30;53.30
33093;DHT22;19456;46.104;12.908;2024-03-25T16:10:21;16.90;52.90
33093;DHT22;19456;46.104;12.908;2024-03-25T16:12:47;16.80;53.40
33093;DHT22;19456;46.104;12.908;2024-03-25T16:15:14;16.70;53.70
33093;DHT22;19456;46.104;12.908;2024-03-25T16:17:40;16.60;54.20
33093;DHT22;19456;46.104;12.908;2024-03-25T16:20:06;16.50;54.30
33093;DHT22;19456;46.104;12.908;2024-03-25T16:22:32;16.40;54.80
33093;DHT22;19456;46.104;12.908;2024-03-25T16:24:58;16.40;55.00
33093;DHT22;19456;46.104;12.908;2024-03-25T16:27:24;16.30;55.20
33093;DHT22;19456;46.104;12.908;2024-03-25T16:29:49;16.20;55.90
33093;DHT22;19456;46.104;12.908;2024-03-25T16:32:15;16.20;56.10
33093;DHT22;19456;46.104;12.908;2024-03-25T16:34:41;16.00;56.30
33093;DHT22;19456;46.104;12.908;2024-03-25T16:37:07;16.00;57.00
33093;DHT22;19456;46.104;12.908;2024-03-25T16:39:32;16.00;57.30
33093;DHT22;19456;46.104;12.908;2024-03-25T16:41:58;16.00;61.50
33093;DHT22;19456;46.104;12.908;2024-03-25T16:44:23;15.90;66.30
33093;DHT22;19456;46.104;12.908;2024-03-25T16:46:50;15.60;70.70
33093;DHT22;19456;46.104;12.908;2024-03-25T16:49:15;15.50;71.90
33093;DHT22;19456;46.104;12.908;2024-03-25T16:51:41;15.40;72.80
33093;DHT22;19456;46.104;12.908;2024-03-25T16:54:07;15.20;74.70
33093;DHT22;19456;46.104;12.908;2024-03-25T16:56:33;15.00;74.30
33093;DHT22;19456;46.104;12.908;2024-03-25T16:58:59;14.90;75.00
33093;DHT22;19456;46.104;12.908;2024-03-25T17:01:25;14.80;75.50
33093;DHT22;19456;46.104;12.908;2024-03-25T17:03:51;14.70;76.80
33093;DHT22;19456;46.104;12.908;2024-03-25T17:06:16;14.60;77.20
33093;DHT22;19456;46.104;12.908;2024-03-25T17:08:42;14.50;78.00
33093;DHT22;19456;46.104;12.908;2024-03-25T17:11:08;14.40;78.90
33093;DHT22;19456;46.104;12.908;2024-03-25T17:13:33;14.40;79.70
33093;DHT22;19456;46.104;12.908;2024-03-25T17:15:59;14.30;81.10
33093;DHT22;19456;46.104;12.908;2024-03-25T17:18:24;14.20;82.00
33093;DHT22;19456;46.104;12.908;2024-03-25T17:20:51;14.10;82.50
33093;DHT22;19456;46.104;12.908;2024-03-25T17:23:23;14.00;83.30
33093;DHT22;19456;46.104;12.908;2024-03-25T17:25:48;14.00;84.00
33093;DHT22;19456;46.104;12.908;2024-03-25T17:28:14;13.90;84.80
33093;DHT22;19456;46.104;12.908;2024-03-25T17:30:39;13.70;85.30
33093;DHT22;19456;46.104;12.908;2024-03-25T17:33:05;13.70;86.40
33093;DHT22;19456;46.104;12.908;2024-03-25T17:35:31;13.60;88.00
33093;DHT22;19456;46.104;12.908;2024-03-25T17:37:56;13.60;89.20
33093;DHT22;19456;46.104;12.908;2024-03-25T17:40:22;13.40;90.60
33093;DHT22;19456;46.104;12.908;2024-03-25T17:42:47;13.30;91.10
33093;DHT22;19456;46.104;12.908;2024-03-25T17:45:13;13.30;91.30
33093;DHT22;19456;46.104;12.908;2024-03-25T17:47:39;13.30;91.60
33093;DHT22;19456;46.104;12.908;2024-03-25T17:50:04;13.30;91.80
33093;DHT22;19456;46.104;12.908;2024-03-25T17:52:31;13.20;92.10
33093;DHT22;19456;46.104;12.908;2024-03-25T17:54:57;13.10;92.40
33093;DHT22;19456;46.104;12.908;2024-03-25T17:57:23;13.10;92.60
33093;DHT22;19456;46.104;12.908;2024-03-25T17:59:49;13.10;92.70
33093;DHT22;19456;46.104;12.908;2024-03-25T18:02:14;13.10;92.90
33093;DHT22;19456;46.104;12.908;2024-03-25T18:04:41;13.10;92.90
33093;DHT22;19456;46.104;12.908;2024-03-25T18:07:07;13.10;93.20
33093;DHT22;19456;46.104;12.908;2024-03-25T18:09:32;13.00;93.80
33093;DHT22;19456;46.104;12.908;2024-03-25T18:11:58;13.00;93.90
33093;DHT22;19456;46.104;12.908;2024-03-25T18:14:23;13.00;94.30
33093;DHT22;19456;46.104;12.908;2024-03-25T18:16:50;12.90;94.60
33093;DHT22;19456;46.104;12.908;2024-03-25T18:19:16;12.90;94.80
33093;DHT22;19456;46.104;12.908;2024-03-25T18:21:43;12.90;95.80
33093;DHT22;19456;46.104;12.908;2024-03-25T18:24:08;12.70;96.80
33093;DHT22;19456;46.104;12.908;2024-03-25T18:26:34;12.70;97.70
33093;DHT22;19456;46.104;12.908;2024-03-25T18:29:03;12.50;98.00
33093;DHT22;19456;46.104;12.908;2024-03-25T18:31:29;12.50;98.50
33093;DHT22;19456;46.104;12.908;2024-03-25T18:33:54;12.40;99.50
33093;DHT22;19456;46.104;12.908;2024-03-25T18:36:20;12.50;99.50
33093;DHT22;19456;46.104;12.908;2024-03-25T18:38:46;12.50;99.80
33093;DHT22;19456;46.104;12.908;2024-03-25T18:41:12;12.50;99.90
33093;DHT22;19456;46.104;12.908;2024-03-25T18:43:37;12.40;99.90
33093;DHT22;19456;46.104;12.908;2024-03-25T18:46:03;12.40;99.90
33093;DHT22;19456;46.104;12.908;2024-03-25T18:48:29;12.20;99.90
33093;DHT22;19456;46.104;12.908;2024-03-25T18:50:54;12.20;99.90